createdAt,value
2023-04-20T00:01:51.253Z,63.8
2023-04-20T00:03:51.353Z,63.8
2023-04-20T00:05:51.014Z,63.8
2023-04-20T00:07:50.929Z,64
2023-04-20T00:09:50.869Z,64.1
2023-04-20T00:11:54.262Z,64.5
2023-04-20T00:13:54.203Z,64.7
2023-04-20T00:15:54.124Z,64.9
2023-04-20T00:17:54.053Z,65.1
2023-04-20T00:19:53.967Z,65.3
2023-04-20T00:21:53.910Z,65.5
2023-04-20T00:23:53.829Z,65.8
2023-04-20T00:25:57.211Z,66.3
2023-04-20T00:27:57.140Z,66.5
2023-04-20T00:29:57.058Z,66.5
2023-04-20T00:31:56.975Z,66.6
2023-04-20T00:33:56.897Z,66.6
2023-04-20T00:35:56.820Z,66.5
2023-04-20T00:37:56.720Z,66.5
2023-04-20T00:40:00.158Z,66.4
2023-04-20T00:42:00.060Z,66.3
2023-04-20T00:44:00.020Z,66.2
2023-04-20T00:45:01.793Z,66.1
2023-04-20T00:47:01.546Z,66
2023-04-20T00:49:01.461Z,65.9
2023-04-20T00:53:04.805Z,65.6
2023-04-20T00:55:04.751Z,65.5
2023-04-20T00:57:04.671Z,65.5
2023-04-20T00:59:04.580Z,65.5
2023-04-20T01:03:04.554Z,65.7
2023-04-20T01:13:07.335Z,67
2023-04-20T01:15:07.454Z,67.3
2023-04-20T01:17:07.138Z,67.6
2023-04-20T01:19:07.065Z,67.9
2023-04-20T01:21:10.472Z,68.8
2023-04-20T01:23:10.413Z,69.2
2023-04-20T01:25:10.277Z,69.7
2023-04-20T01:29:09.961Z,71.2
2023-04-20T01:31:09.933Z,72.2
2023-04-20T01:33:09.708Z,73
2023-04-20T01:37:12.817Z,74.5
2023-04-20T01:40:14.407Z,75.8
2023-04-20T01:42:14.313Z,76.3
2023-04-20T01:44:14.213Z,77
2023-04-20T01:46:14.149Z,77.6
2023-04-20T01:48:17.530Z,78.5
2023-04-20T01:50:17.432Z,78.9
2023-04-20T01:52:17.345Z,79.4
2023-04-20T02:04:20.167Z,81.8
2023-04-20T02:06:20.090Z,82
2023-04-20T02:08:19.966Z,82.1
2023-04-20T02:10:19.836Z,82.1
2023-04-20T02:12:19.686Z,82.1
2023-04-20T02:16:22.693Z,81.9
2023-04-20T02:18:22.608Z,81.8
2023-04-20T02:24:22.188Z,81.6
2023-04-20T02:26:22.097Z,81.6
2023-04-20T02:32:25.270Z,81.2
2023-04-20T02:34:25.172Z,81.1
2023-04-20T02:36:47.391Z,80.9
2023-04-20T02:38:47.293Z,80.8
2023-04-20T02:40:47.185Z,80.7
2023-04-20T02:42:50.562Z,80.5
2023-04-20T02:44:50.366Z,80.4
2023-04-20T02:46:50.257Z,80.3
2023-04-20T02:50:49.967Z,80
2023-04-20T02:54:51.156Z,79.8
2023-04-20T02:56:55.884Z,79.7
2023-04-20T03:00:54.181Z,79.8
2023-04-20T03:04:54.049Z,79.8
2023-04-20T03:08:53.725Z,79.9
2023-04-20T03:10:56.932Z,80
2023-04-20T03:12:56.722Z,80.1
2023-04-20T03:14:56.619Z,80.2
2023-04-20T03:16:56.527Z,80.4
2023-04-20T03:18:56.431Z,80.4
2023-04-20T03:20:56.287Z,80.4
2023-04-20T03:22:56.203Z,80.3
2023-04-20T03:26:59.229Z,80.1
2023-04-20T03:28:59.064Z,80.1
2023-04-20T03:30:00.747Z,80.3
2023-04-20T03:32:00.690Z,80.5
2023-04-20T03:34:00.609Z,80.6
2023-04-20T03:38:03.561Z,80.8
2023-04-20T03:48:02.779Z,80.6
2023-04-20T03:50:02.463Z,80.6
2023-04-20T03:52:05.658Z,80.8
2023-04-20T03:56:05.409Z,81.2
2023-04-20T03:58:05.191Z,81.5
2023-04-20T04:02:04.796Z,82.3
2023-04-20T04:04:04.887Z,82.8
2023-04-20T04:08:07.708Z,83.9
2023-04-20T04:10:07.534Z,84.2
2023-04-20T04:14:07.146Z,84.6
2023-04-20T04:16:06.976Z,84.9
2023-04-20T04:18:06.914Z,85.2
2023-04-20T04:20:10.212Z,85.7
2023-04-20T04:24:09.875Z,85.9
2023-04-20T04:25:11.740Z,86
2023-04-20T04:27:11.360Z,86.1
2023-04-20T04:29:11.248Z,86.3
2023-04-20T04:37:13.840Z,87.5
2023-04-20T04:39:13.715Z,87.7
2023-04-20T04:49:17.005Z,89.7
2023-04-20T04:53:16.241Z,90.3
2023-04-20T04:57:16.006Z,90.7
2023-04-20T04:59:16.158Z,90.8
2023-04-20T05:03:19.095Z,91
2023-04-20T05:05:18.857Z,91.2
2023-04-20T05:07:18.762Z,91.3
2023-04-20T05:09:18.971Z,91.4
2023-04-20T05:19:21.296Z,92.1
2023-04-20T05:22:22.632Z,92.1
2023-04-20T05:30:25.447Z,92
2023-04-20T05:32:25.298Z,91.8
2023-04-20T05:34:25.018Z,91.6
2023-04-20T05:36:24.896Z,91.5
2023-04-20T05:48:29.826Z,89.6
2023-04-20T05:50:27.116Z,89.1
2023-04-20T05:52:26.967Z,86.8
2023-04-20T05:54:26.802Z,86.4
2023-04-20T05:58:29.776Z,84.7
2023-04-20T06:00:29.549Z,84.3
2023-04-20T06:02:29.400Z,84.2
2023-04-20T06:04:29.286Z,84
2023-04-20T06:06:28.892Z,84
2023-04-20T06:10:32.005Z,84.2
2023-04-20T06:14:31.565Z,84.3
2023-04-20T06:16:53.153Z,84.3
2023-04-20T06:20:52.741Z,84.4
2023-04-20T06:22:55.881Z,84.7
2023-04-20T06:24:55.669Z,84.8
2023-04-20T06:26:55.476Z,84.8
2023-04-20T06:28:55.268Z,84.6
2023-04-20T06:30:55.205Z,84.3
2023-04-20T06:32:54.901Z,83.9
2023-04-20T06:52:59.680Z,84.5
2023-04-20T06:54:59.456Z,84.8
2023-04-20T06:56:59.231Z,85.2
2023-04-20T07:00:58.845Z,85.6
2023-04-20T07:05:02.044Z,86.9
2023-04-20T07:07:01.728Z,87.2
2023-04-20T07:09:01.558Z,87.6
2023-04-20T07:10:03.124Z,88
2023-04-20T07:12:02.928Z,88.3
2023-04-20T07:14:02.690Z,88.5
2023-04-20T07:16:02.537Z,88.7
2023-04-20T07:18:05.717Z,89.4
2023-04-20T07:20:05.483Z,89.5
2023-04-20T07:22:05.241Z,89.9
2023-04-20T07:24:05.016Z,90.2
2023-04-20T07:28:04.600Z,90.6
2023-04-20T07:32:07.672Z,90.6
2023-04-20T07:34:07.441Z,90.6
2023-04-20T07:36:07.314Z,90.5
2023-04-20T07:38:07.112Z,90.3
2023-04-20T07:40:07.119Z,90.1
2023-04-20T07:44:06.453Z,89.4
2023-04-20T07:46:09.706Z,88.6
2023-04-20T07:48:09.526Z,88.5
2023-04-20T07:50:09.140Z,88
2023-04-20T07:52:16.443Z,87.8
2023-04-20T07:58:08.239Z,88.7
2023-04-20T08:00:11.393Z,90.1
2023-04-20T08:02:11.278Z,90.4
2023-04-20T08:04:11.075Z,90.8
2023-04-20T08:05:12.724Z,91.3
2023-04-20T08:07:12.280Z,91.8
2023-04-20T08:09:13.268Z,92.1
2023-04-20T08:11:11.812Z,92.5
2023-04-20T08:13:14.978Z,93.2
2023-04-20T08:15:14.726Z,93.5
2023-04-20T08:17:14.525Z,93.7
2023-04-20T08:23:13.836Z,93.7
2023-04-20T08:25:13.582Z,93.7
2023-04-20T08:27:16.760Z,93.7
2023-04-20T08:29:16.528Z,93.8
2023-04-20T08:31:16.446Z,93.8
2023-04-20T08:33:16.079Z,93.9
2023-04-20T08:35:15.839Z,93.7
2023-04-20T08:37:15.586Z,93.5
2023-04-20T08:39:15.358Z,93.1
2023-04-20T08:41:20.108Z,92.3
2023-04-20T08:49:19.173Z,91.2
2023-04-20T08:51:18.937Z,91.2
2023-04-20T08:53:18.709Z,91.1
2023-04-20T08:57:21.620Z,85.9
2023-04-20T09:00:22.974Z,85.8
2023-04-20T09:04:22.864Z,87
2023-04-20T09:06:23.301Z,86.8
2023-04-20T09:10:25.079Z,83.9
2023-04-20T09:18:24.014Z,88
2023-04-20T09:20:23.766Z,88.1
2023-04-20T09:22:26.911Z,89.1
2023-04-20T09:24:26.648Z,89.3
2023-04-20T09:26:26.361Z,89.4
2023-04-20T09:32:25.613Z,88.2
2023-04-20T09:34:25.322Z,86.5
2023-04-20T09:36:28.430Z,85.5
2023-04-20T09:38:28.201Z,85.5
2023-04-20T09:40:27.932Z,85.4
2023-04-20T09:42:27.626Z,85.7
2023-04-20T09:44:27.390Z,85.5
2023-04-20T09:48:26.884Z,82.8
2023-04-20T09:50:41.742Z,79.8
2023-04-20T09:52:29.774Z,79.4
2023-04-20T09:56:51.296Z,78.1
2023-04-20T09:58:51.045Z,77.4
2023-04-20T10:00:50.863Z,77.3
2023-04-20T10:02:54.063Z,77.3
2023-04-20T10:10:52.894Z,77.9
2023-04-20T10:12:52.661Z,77.8
2023-04-20T10:14:52.319Z,78
2023-04-20T10:16:55.490Z,78.8
2023-04-20T10:20:54.873Z,78.5
2023-04-20T10:24:54.413Z,76.3
2023-04-20T10:28:53.830Z,74.3
2023-04-20T10:30:56.964Z,70.6
2023-04-20T10:32:56.708Z,70.4
2023-04-20T10:40:55.505Z,65.4
2023-04-20T10:42:55.170Z,65.8
2023-04-20T10:44:58.274Z,67.6
2023-04-20T10:46:57.989Z,68.9
2023-04-20T10:48:57.687Z,70.1
2023-04-20T10:49:59.196Z,70.2
2023-04-20T10:53:58.619Z,70.4
2023-04-20T10:58:01.411Z,68.5
2023-04-20T11:02:01.018Z,68.2
2023-04-20T11:04:00.599Z,68.3
2023-04-20T11:06:00.251Z,68.2
2023-04-20T11:16:02.075Z,70.3
2023-04-20T11:18:01.755Z,70.2
2023-04-20T11:20:01.452Z,69.8
2023-04-20T11:22:01.155Z,69.7
2023-04-20T11:24:00.836Z,69.4
2023-04-20T11:26:03.862Z,69.1
2023-04-20T11:28:03.586Z,69
2023-04-20T11:30:03.267Z,68.9
2023-04-20T11:32:03.180Z,68.8
2023-04-20T11:34:03.480Z,69
2023-04-20T11:36:02.394Z,69.4
2023-04-20T11:38:02.083Z,69.6
2023-04-20T11:40:05.190Z,69.8
2023-04-20T11:42:04.936Z,69.7
2023-04-20T11:47:05.862Z,68.9
2023-04-20T11:49:05.580Z,69
2023-04-20T11:51:05.255Z,69.3
2023-04-20T11:57:07.805Z,69.2
2023-04-20T12:01:07.205Z,68.8
2023-04-20T12:03:07.153Z,69
2023-04-20T12:05:06.706Z,69.7
2023-04-20T12:07:09.719Z,71.1
2023-04-20T12:09:09.446Z,71.4
2023-04-20T12:13:08.846Z,71.8
2023-04-20T12:15:08.536Z,72
2023-04-20T12:27:10.225Z,72
2023-04-20T12:33:09.418Z,69.5
2023-04-20T12:35:12.517Z,69.1
2023-04-20T12:37:12.189Z,68.5
2023-04-20T12:39:11.994Z,68.2
2023-04-20T12:40:13.469Z,67.7
2023-04-20T12:44:12.883Z,67.5
2023-04-20T12:48:15.697Z,67.5
2023-04-20T12:50:15.335Z,67.5
2023-04-20T12:52:15.018Z,66
2023-04-20T12:54:14.716Z,65.6
2023-04-20T13:00:14.634Z,64.3
2023-04-20T13:02:16.893Z,64.1
2023-04-20T13:04:16.954Z,64.1
2023-04-20T13:06:16.178Z,63.9
2023-04-20T13:10:15.499Z,64.1
2023-04-20T13:12:15.140Z,64.1
2023-04-20T13:14:14.822Z,64.1
2023-04-20T13:16:17.885Z,64.2
2023-04-20T13:18:17.558Z,64.2
2023-04-20T13:20:17.230Z,64.3
2023-04-20T13:24:16.663Z,64.3
2023-04-20T13:26:16.255Z,64.7
2023-04-20T13:30:18.989Z,64.6
2023-04-20T13:32:18.762Z,64.7
2023-04-20T13:34:18.738Z,64.8
2023-04-20T13:38:33.381Z,64.8
2023-04-20T13:42:36.177Z,65
2023-04-20T13:44:35.849Z,65.1
2023-04-20T13:50:34.886Z,65.4
2023-04-20T13:52:34.555Z,65.8
2023-04-20T13:54:34.242Z,65.7
2023-04-20T14:06:35.659Z,64.4
2023-04-20T14:10:38.411Z,61.4
2023-04-20T14:14:37.749Z,61.1
2023-04-20T14:16:37.493Z,60.9
2023-04-20T14:20:36.773Z,59.9
2023-04-20T14:22:36.492Z,59.7
2023-04-20T14:24:41.016Z,56.7
2023-04-20T14:28:40.313Z,55.9
2023-04-20T14:29:41.823Z,55.6
2023-04-20T14:37:43.763Z,56.7
2023-04-20T14:39:43.428Z,57
2023-04-20T14:41:43.035Z,58.2
2023-04-20T14:45:42.308Z,59
2023-04-20T14:47:41.960Z,59.2
2023-04-20T14:51:44.560Z,56.2
2023-04-20T14:55:43.857Z,54.7
2023-04-20T14:57:43.478Z,53.4
2023-04-20T14:59:43.104Z,51.4
2023-04-20T15:01:48.413Z,51.5
2023-04-20T15:03:42.587Z,51.5
2023-04-20T15:05:45.605Z,51.7
2023-04-20T15:07:44.988Z,52
2023-04-20T15:09:44.597Z,53.6
2023-04-20T15:11:44.182Z,54.7
2023-04-20T15:13:43.882Z,56.3
2023-04-20T15:15:48.591Z,56.6
2023-04-20T15:17:43.058Z,57.1
2023-04-20T15:19:46.121Z,58.9
2023-04-20T15:21:45.692Z,59.2
2023-04-20T15:23:45.348Z,59.3
2023-04-20T15:24:46.853Z,56.8
2023-04-20T15:26:46.493Z,56.2
2023-04-20T15:28:46.127Z,54.6
2023-04-20T15:30:45.784Z,54.1
2023-04-20T15:32:48.875Z,51.5
2023-04-20T15:34:48.440Z,51.3
2023-04-20T15:36:48.058Z,51
2023-04-20T15:38:47.727Z,50.6
2023-04-20T15:40:47.358Z,50.6
2023-04-20T15:42:46.995Z,50.3
2023-04-20T15:44:46.624Z,50.7
2023-04-20T15:46:49.651Z,52.9
2023-04-20T15:48:49.259Z,52.9
2023-04-20T15:56:47.827Z,53.7
2023-04-20T16:00:50.485Z,55.1
2023-04-20T16:02:50.306Z,55.2
2023-04-20T16:06:49.371Z,55.9
2023-04-20T16:10:48.641Z,56
2023-04-20T16:12:48.288Z,56
2023-04-20T16:14:53.296Z,56
2023-04-20T16:16:51.007Z,56.1
2023-04-20T16:19:52.183Z,56.3
2023-04-20T16:21:51.787Z,56.5
2023-04-20T16:23:51.452Z,56.6
2023-04-20T16:25:51.085Z,56.7
2023-04-20T16:27:54.146Z,56.6
2023-04-20T16:41:55.226Z,54.6
2023-04-20T16:43:54.901Z,54.8
2023-04-20T16:45:54.574Z,54.9
2023-04-20T16:47:54.277Z,55.7
2023-04-20T16:49:53.898Z,56.2
2023-04-20T16:51:53.588Z,57
2023-04-20T16:55:56.328Z,57.6
2023-04-20T16:57:55.997Z,57.5
2023-04-20T16:59:55.738Z,57.5
2023-04-20T17:03:55.206Z,57.3
2023-04-20T17:07:54.465Z,56.9
2023-04-20T17:11:57.244Z,55.8
2023-04-20T17:13:56.947Z,55.5
2023-04-20T17:16:18.526Z,55.1
2023-04-20T17:18:18.194Z,55.3
2023-04-20T17:20:17.872Z,55.4
2023-04-20T17:22:20.987Z,55.6
2023-04-20T17:24:20.841Z,55.6
2023-04-20T17:26:20.325Z,55.3
2023-04-20T17:28:20.017Z,55
2023-04-20T17:30:19.663Z,54.8
2023-04-20T17:32:19.411Z,54.6
2023-04-20T17:34:19.252Z,54.6
2023-04-20T17:36:22.164Z,54.7
2023-04-20T17:38:21.848Z,54.8
2023-04-20T17:40:21.518Z,55
2023-04-20T17:42:21.196Z,55.1
2023-04-20T17:46:20.649Z,55.4
2023-04-20T17:52:23.052Z,56.8
2023-04-20T17:56:22.415Z,57.6
2023-04-20T18:00:21.749Z,58.3
2023-04-20T18:02:21.527Z,58.6
2023-04-20T18:04:25.167Z,59.2
2023-04-20T18:08:23.953Z,59.7
2023-04-20T18:09:25.489Z,60.8
2023-04-20T18:13:24.846Z,62.1
2023-04-20T18:15:24.532Z,62.5
2023-04-20T18:17:27.646Z,64
2023-04-20T18:19:27.308Z,64.5
2023-04-20T18:21:27.016Z,65.4
2023-04-20T18:23:26.708Z,66.6
2023-04-20T18:25:26.422Z,67.1
2023-04-20T18:27:26.131Z,68.1
2023-04-20T18:29:25.852Z,68.7
2023-04-20T18:31:28.975Z,70.2
2023-04-20T18:33:28.670Z,71.2
2023-04-20T18:35:28.352Z,72.3
2023-04-20T18:37:28.062Z,72.7
2023-04-20T18:39:27.796Z,73
2023-04-20T18:41:27.512Z,73.7
2023-04-20T18:43:27.232Z,74.2
2023-04-20T18:45:30.311Z,75.3
2023-04-20T18:47:30.080Z,75.7
2023-04-20T19:04:32.885Z,86.8
2023-04-20T19:12:35.126Z,92.3
2023-04-20T19:14:34.866Z,93.9
2023-04-20T19:18:34.307Z,97.5
2023-04-20T19:20:34.036Z,98
2023-04-20T19:22:33.744Z,98.7
2023-04-20T19:24:33.485Z,99.1
2023-04-20T19:34:35.553Z,99.9
2023-04-20T19:36:35.303Z,99.9
2023-04-20T19:40:38.168Z,99.9
2023-04-20T19:42:37.899Z,99.9
2023-04-20T19:48:37.131Z,99.9
2023-04-20T19:52:36.609Z,99.9
2023-04-20T19:54:39.749Z,99.9
2023-04-20T19:56:39.489Z,99.9
2023-04-20T19:58:39.269Z,99.9
2023-04-20T19:59:40.809Z,99.9
2023-04-20T20:01:40.598Z,99.9
2023-04-20T20:05:40.044Z,99.9
2023-04-20T20:07:43.174Z,99.9
2023-04-20T20:09:44.511Z,99.9
2023-04-20T20:11:44.172Z,99.9
2023-04-20T20:15:43.765Z,99.9
2023-04-20T20:19:43.221Z,99.9
2023-04-20T20:21:46.331Z,99.9
2023-04-20T20:23:46.083Z,99.9
2023-04-20T20:25:45.834Z,99.9
2023-04-20T20:27:45.580Z,99.9
2023-04-20T20:29:45.357Z,99.9
2023-04-20T20:31:45.173Z,99.9
2023-04-20T20:35:48.023Z,99.9
2023-04-20T20:37:47.747Z,99.9
2023-04-20T20:39:47.500Z,99.9
2023-04-20T20:41:47.279Z,99.9
2023-04-20T20:43:47.016Z,99.9
2023-04-20T20:45:46.739Z,99.9
2023-04-20T20:47:46.597Z,99.9
2023-04-20T20:49:49.664Z,99.9
2023-04-20T20:51:49.417Z,99.9
2023-04-20T20:53:49.197Z,99.9
2023-04-20T20:56:04.813Z,99.9
2023-04-20T20:58:04.599Z,99.9
2023-04-20T21:00:04.288Z,99.9
2023-04-20T21:04:07.299Z,99.9
2023-04-20T21:06:06.958Z,99.9
2023-04-20T21:08:06.722Z,99.9
2023-04-20T21:14:06.036Z,99.9
2023-04-20T21:16:09.237Z,99.9
2023-04-20T21:26:07.980Z,99.9
2023-04-20T21:28:07.745Z,99.9
2023-04-20T21:30:10.892Z,99.9
2023-04-20T21:32:10.723Z,99.9
2023-04-20T21:36:10.184Z,99.9
2023-04-20T21:40:09.764Z,99.9
2023-04-20T21:42:09.498Z,99.9
2023-04-20T21:44:12.661Z,99.9
2023-04-20T21:49:13.802Z,99.9
2023-04-20T21:53:13.357Z,99.9
2023-04-20T21:57:16.328Z,99.9
2023-04-20T21:59:16.126Z,99.9
2023-04-20T22:01:15.925Z,99.9
2023-04-20T22:03:15.841Z,99.9
2023-04-20T22:05:15.415Z,99.9
2023-04-20T22:07:15.186Z,99.9
2023-04-20T22:09:14.958Z,99.9
2023-04-20T22:11:18.110Z,99.9
2023-04-20T22:13:17.946Z,99.9
2023-04-20T22:15:17.738Z,99.9
2023-04-20T22:17:17.510Z,99.9
2023-04-20T22:19:17.524Z,99.9
2023-04-20T22:23:16.835Z,99.9
2023-04-20T22:25:20.004Z,99.9
2023-04-20T22:27:19.751Z,99.9
2023-04-20T22:29:19.946Z,99.9
2023-04-20T22:31:19.349Z,99.9
2023-04-20T22:33:19.071Z,99.9
2023-04-20T22:35:18.860Z,99.9
2023-04-20T22:37:18.671Z,99.9
2023-04-20T22:41:21.552Z,99.9
2023-04-20T22:43:21.344Z,99.9
2023-04-20T22:44:22.928Z,99.9
2023-04-20T22:46:22.792Z,99.9
2023-04-20T22:48:22.491Z,99.9
2023-04-20T22:50:22.382Z,99.9
2023-04-20T22:52:25.597Z,99.9
2023-04-20T22:54:25.372Z,99.9
2023-04-20T22:56:25.184Z,99.9
2023-04-20T22:58:25.018Z,99.9
2023-04-20T23:00:24.801Z,99.9
2023-04-20T23:04:24.635Z,99.9
2023-04-20T23:06:27.670Z,99.9
2023-04-20T23:08:27.484Z,99.9
2023-04-20T23:10:27.328Z,99.9
2023-04-20T23:12:27.205Z,99.9
2023-04-20T23:20:29.676Z,99.9
2023-04-20T23:22:29.478Z,99.9
2023-04-20T23:24:29.370Z,99.9
2023-04-20T23:26:29.225Z,99.9
2023-04-20T23:28:28.992Z,99.9
2023-04-20T23:32:28.583Z,99.9
2023-04-20T23:36:31.605Z,99.9
2023-04-20T23:38:31.367Z,99.9
2023-04-20T23:39:32.976Z,99.9
2023-04-20T23:45:32.422Z,99.9
2023-04-20T23:47:35.596Z,99.9
